sensor_id;sensor_type;location;lat;lon;timestamp;P1;durP1;ratioP1;P2;durP2;ratioP2
65755;SDS011;69208;47.502;18.940;2023-06-22T00:00:37;10.88;;;4.70;;
65755;SDS011;69208;47.502;18.940;2023-06-22T00:01:42;10.77;;;4.90;;
65755;SDS011;69208;47.502;18.940;2023-06-22T00:02:45;14.70;;;5.20;;
65755;SDS011;69208;47.502;18.940;2023-06-22T00:03:48;9.27;;;4.78;;
65755;SDS011;69208;47.502;18.940;2023-06-22T00:04:51;10.98;;;4.85;;
65755;SDS011;69208;47.502;18.940;2023-06-22T00:05:54;11.77;;;5.25;;
65755;SDS011;69208;47.502;18.940;2023-06-22T00:06:59;13.93;;;5.07;;
65755;SDS011;69208;47.502;18.940;2023-06-22T00:08:03;11.48;;;4.93;;
65755;SDS011;69208;47.502;18.940;2023-06-22T00:09:07;14.15;;;5.30;;
65755;SDS011;69208;47.502;18.940;2023-06-22T00:10:10;11.10;;;5.50;;
65755;SDS011;69208;47.502;18.940;2023-06-22T00:11:13;11.48;;;4.90;;
65755;SDS011;69208;47.502;18.940;2023-06-22T00:12:16;12.80;;;5.10;;
65755;SDS011;69208;47.502;18.940;2023-06-22T00:13:19;10.82;;;4.87;;
65755;SDS011;69208;47.502;18.940;2023-06-22T00:14:22;10.23;;;5.10;;
65755;SDS011;69208;47.502;18.940;2023-06-22T00:15:25;12.05;;;5.10;;
65755;SDS011;69208;47.502;18.940;2023-06-22T00:16:29;10.95;;;5.07;;
65755;SDS011;69208;47.502;18.940;2023-06-22T00:17:32;16.10;;;5.40;;
65755;SDS011;69208;47.502;18.940;2023-06-22T00:18:35;9.90;;;5.32;;
65755;SDS011;69208;47.502;18.940;2023-06-22T00:19:38;8.45;;;4.87;;
65755;SDS011;69208;47.502;18.940;2023-06-22T00:20:43;8.38;;;4.60;;
65755;SDS011;69208;47.502;18.940;2023-06-22T00:21:48;12.00;;;5.25;;
65755;SDS011;69208;47.502;18.940;2023-06-22T00:22:55;8.18;;;4.62;;
65755;SDS011;69208;47.502;18.940;2023-06-22T00:24:00;17.45;;;4.65;;
65755;SDS011;69208;47.502;18.940;2023-06-22T00:25:03;12.02;;;5.32;;
65755;SDS011;69208;47.502;18.940;2023-06-22T00:26:06;10.15;;;4.70;;
65755;SDS011;69208;47.502;18.940;2023-06-22T00:27:09;10.15;;;5.10;;
65755;SDS011;69208;47.502;18.940;2023-06-22T00:28:12;12.98;;;4.93;;
65755;SDS011;69208;47.502;18.940;2023-06-22T00:29:15;10.57;;;4.95;;
65755;SDS011;69208;47.502;18.940;2023-06-22T00:30:19;10.25;;;4.53;;
65755;SDS011;69208;47.502;18.940;2023-06-22T00:31:22;9.45;;;4.35;;
65755;SDS011;69208;47.502;18.940;2023-06-22T00:32:25;9.27;;;4.90;;
65755;SDS011;69208;47.502;18.940;2023-06-22T00:33:28;12.85;;;5.40;;
65755;SDS011;69208;47.502;18.940;2023-06-22T00:34:31;13.13;;;5.18;;
65755;SDS011;69208;47.502;18.940;2023-06-22T00:35:34;10.50;;;5.07;;
65755;SDS011;69208;47.502;18.940;2023-06-22T00:36:37;9.45;;;4.75;;
65755;SDS011;69208;47.502;18.940;2023-06-22T00:37:40;14.13;;;4.95;;
65755;SDS011;69208;47.502;18.940;2023-06-22T00:38:45;8.82;;;4.97;;
65755;SDS011;69208;47.502;18.940;2023-06-22T00:39:48;8.90;;;4.32;;
65755;SDS011;69208;47.502;18.940;2023-06-22T00:40:52;9.45;;;4.53;;
65755;SDS011;69208;47.502;18.940;2023-06-22T00:41:55;9.18;;;4.82;;
65755;SDS011;69208;47.502;18.940;2023-06-22T00:42:58;11.23;;;4.80;;
65755;SDS011;69208;47.502;18.940;2023-06-22T00:44:01;8.90;;;4.60;;
65755;SDS011;69208;47.502;18.940;2023-06-22T00:45:05;11.98;;;4.80;;
65755;SDS011;69208;47.502;18.940;2023-06-22T00:46:08;10.35;;;4.68;;
65755;SDS011;69208;47.502;18.940;2023-06-22T00:47:15;9.07;;;4.70;;
65755;SDS011;69208;47.502;18.940;2023-06-22T00:48:20;10.23;;;4.60;;
65755;SDS011;69208;47.502;18.940;2023-06-22T00:49:23;9.77;;;4.53;;
65755;SDS011;69208;47.502;18.940;2023-06-22T00:50:28;13.57;;;5.10;;
65755;SDS011;69208;47.502;18.940;2023-06-22T00:51:37;13.90;;;4.68;;
65755;SDS011;69208;47.502;18.940;2023-06-22T00:52:40;8.90;;;4.60;;
65755;SDS011;69208;47.502;18.940;2023-06-22T00:53:48;10.10;;;4.93;;
65755;SDS011;69208;47.502;18.940;2023-06-22T00:54:52;11.38;;;5.20;;
65755;SDS011;69208;47.502;18.940;2023-06-22T00:55:55;12.10;;;5.32;;
65755;SDS011;69208;47.502;18.940;2023-06-22T00:57:02;8.05;;;4.90;;
65755;SDS011;69208;47.502;18.940;2023-06-22T00:58:08;9.32;;;4.78;;
65755;SDS011;69208;47.502;18.940;2023-06-22T00:59:13;13.57;;;4.50;;
65755;SDS011;69208;47.502;18.940;2023-06-22T01:00:20;10.38;;;4.60;;
65755;SDS011;69208;47.502;18.940;2023-06-22T01:01:23;10.43;;;5.10;;
65755;SDS011;69208;47.502;18.940;2023-06-22T01:02:26;13.02;;;4.70;;
65755;SDS011;69208;47.502;18.940;2023-06-22T01:03:29;9.27;;;4.90;;
65755;SDS011;69208;47.502;18.940;2023-06-22T01:04:36;8.50;;;4.37;;
65755;SDS011;69208;47.502;18.940;2023-06-22T01:05:40;11.43;;;4.50;;
65755;SDS011;69208;47.502;18.940;2023-06-22T01:06:52;11.52;;;5.30;;
65755;SDS011;69208;47.502;18.940;2023-06-22T01:09:27;11.00;;;4.53;;
65755;SDS011;69208;47.502;18.940;2023-06-22T01:12:04;11.23;;;4.05;;
65755;SDS011;69208;47.502;18.940;2023-06-22T01:14:41;9.80;;;4.45;;
65755;SDS011;69208;47.502;18.940;2023-06-22T01:15:51;8.70;;;4.15;;
65755;SDS011;69208;47.502;18.940;2023-06-22T01:16:59;12.43;;;4.57;;
65755;SDS011;69208;47.502;18.940;2023-06-22T01:18:04;8.30;;;4.57;;
65755;SDS011;69208;47.502;18.940;2023-06-22T01:20:23;8.00;;;4.18;;
65755;SDS011;69208;47.502;18.940;2023-06-22T01:21:30;12.82;;;4.60;;
65755;SDS011;69208;47.502;18.940;2023-06-22T01:22:38;9.55;;;4.45;;
65755;SDS011;69208;47.502;18.940;2023-06-22T01:25:15;11.02;;;4.00;;
65755;SDS011;69208;47.502;18.940;2023-06-22T01:29:19;9.25;;;4.15;;
65755;SDS011;69208;47.502;18.940;2023-06-22T01:30:24;8.27;;;3.95;;
65755;SDS011;69208;47.502;18.940;2023-06-22T01:31:29;15.90;;;4.40;;
65755;SDS011;69208;47.502;18.940;2023-06-22T01:32:38;11.10;;;4.47;;
65755;SDS011;69208;47.502;18.940;2023-06-22T01:33:43;9.95;;;4.10;;
65755;SDS011;69208;47.502;18.940;2023-06-22T01:34:49;12.00;;;4.65;;
65755;SDS011;69208;47.502;18.940;2023-06-22T01:35:53;10.20;;;4.50;;
65755;SDS011;69208;47.502;18.940;2023-06-22T01:36:56;10.85;;;4.10;;
65755;SDS011;69208;47.502;18.940;2023-06-22T01:38:01;10.13;;;4.05;;
65755;SDS011;69208;47.502;18.940;2023-06-22T01:39:05;10.68;;;3.97;;
65755;SDS011;69208;47.502;18.940;2023-06-22T01:40:08;7.87;;;3.78;;
65755;SDS011;69208;47.502;18.940;2023-06-22T01:41:12;7.00;;;3.75;;
65755;SDS011;69208;47.502;18.940;2023-06-22T01:42:16;7.37;;;4.00;;
65755;SDS011;69208;47.502;18.940;2023-06-22T01:43:20;9.63;;;4.32;;
65755;SDS011;69208;47.502;18.940;2023-06-22T01:44:25;9.65;;;3.62;;
65755;SDS011;69208;47.502;18.940;2023-06-22T01:45:29;11.43;;;4.05;;
65755;SDS011;69208;47.502;18.940;2023-06-22T01:46:33;9.13;;;4.37;;
65755;SDS011;69208;47.502;18.940;2023-06-22T01:47:37;12.90;;;3.80;;
65755;SDS011;69208;47.502;18.940;2023-06-22T01:48:42;8.32;;;3.80;;
65755;SDS011;69208;47.502;18.940;2023-06-22T01:49:45;8.95;;;3.40;;
65755;SDS011;69208;47.502;18.940;2023-06-22T01:50:49;8.93;;;3.85;;
65755;SDS011;69208;47.502;18.940;2023-06-22T01:51:52;9.23;;;3.83;;
65755;SDS011;69208;47.502;18.940;2023-06-22T01:52:57;9.00;;;3.53;;
65755;SDS011;69208;47.502;18.940;2023-06-22T01:54:01;10.98;;;3.83;;
65755;SDS011;69208;47.502;18.940;2023-06-22T01:55:04;8.73;;;3.42;;
65755;SDS011;69208;47.502;18.940;2023-06-22T01:56:10;9.85;;;3.50;;
65755;SDS011;69208;47.502;18.940;2023-06-22T01:57:13;11.30;;;4.22;;
65755;SDS011;69208;47.502;18.940;2023-06-22T01:58:16;9.35;;;3.83;;
65755;SDS011;69208;47.502;18.940;2023-06-22T01:59:26;9.68;;;4.03;;
65755;SDS011;69208;47.502;18.940;2023-06-22T02:00:36;9.98;;;4.10;;
65755;SDS011;69208;47.502;18.940;2023-06-22T02:01:46;9.93;;;3.85;;
65755;SDS011;69208;47.502;18.940;2023-06-22T02:03:11;16.40;;;4.03;;
65755;SDS011;69208;47.502;18.940;2023-06-22T02:04:43;9.60;;;3.50;;
65755;SDS011;69208;47.502;18.940;2023-06-22T02:05:52;8.90;;;3.70;;
65755;SDS011;69208;47.502;18.940;2023-06-22T02:06:59;8.32;;;3.60;;
65755;SDS011;69208;47.502;18.940;2023-06-22T02:08:07;8.55;;;4.05;;
65755;SDS011;69208;47.502;18.940;2023-06-22T02:09:14;5.87;;;3.50;;
65755;SDS011;69208;47.502;18.940;2023-06-22T02:10:19;7.70;;;4.28;;
65755;SDS011;69208;47.502;18.940;2023-06-22T02:11:24;9.98;;;3.95;;
65755;SDS011;69208;47.502;18.940;2023-06-22T02:12:31;10.25;;;4.18;;
65755;SDS011;69208;47.502;18.940;2023-06-22T02:13:36;6.20;;;3.65;;
65755;SDS011;69208;47.502;18.940;2023-06-22T02:14:40;8.90;;;3.67;;
65755;SDS011;69208;47.502;18.940;2023-06-22T02:15:43;12.75;;;4.22;;
65755;SDS011;69208;47.502;18.940;2023-06-22T02:16:47;7.53;;;3.97;;
65755;SDS011;69208;47.502;18.940;2023-06-22T02:17:52;8.95;;;3.95;;
65755;SDS011;69208;47.502;18.940;2023-06-22T02:18:55;9.13;;;4.07;;
65755;SDS011;69208;47.502;18.940;2023-06-22T02:20:00;7.15;;;3.92;;
65755;SDS011;69208;47.502;18.940;2023-06-22T02:21:06;9.95;;;3.35;;
65755;SDS011;69208;47.502;18.940;2023-06-22T02:22:09;10.40;;;3.92;;
65755;SDS011;69208;47.502;18.940;2023-06-22T02:23:12;14.98;;;4.30;;
65755;SDS011;69208;47.502;18.940;2023-06-22T02:24:15;6.72;;;3.87;;
65755;SDS011;69208;47.502;18.940;2023-06-22T02:25:18;6.85;;;3.87;;
65755;SDS011;69208;47.502;18.940;2023-06-22T02:26:22;8.25;;;4.07;;
65755;SDS011;69208;47.502;18.940;2023-06-22T02:27:27;5.75;;;3.70;;
65755;SDS011;69208;47.502;18.940;2023-06-22T02:28:30;9.93;;;4.43;;
65755;SDS011;69208;47.502;18.940;2023-06-22T02:29:33;10.27;;;4.10;;
65755;SDS011;69208;47.502;18.940;2023-06-22T02:30:36;8.90;;;4.07;;
65755;SDS011;69208;47.502;18.940;2023-06-22T02:31:39;7.12;;;3.72;;
65755;SDS011;69208;47.502;18.940;2023-06-22T02:32:42;6.25;;;3.67;;
65755;SDS011;69208;47.502;18.940;2023-06-22T02:33:45;7.15;;;4.07;;
65755;SDS011;69208;47.502;18.940;2023-06-22T02:34:49;11.18;;;4.22;;
65755;SDS011;69208;47.502;18.940;2023-06-22T02:35:52;7.35;;;4.00;;
65755;SDS011;69208;47.502;18.940;2023-06-22T02:36:55;8.23;;;4.00;;
65755;SDS011;69208;47.502;18.940;2023-06-22T02:37:58;6.80;;;3.83;;
65755;SDS011;69208;47.502;18.940;2023-06-22T02:39:03;6.82;;;4.00;;
65755;SDS011;69208;47.502;18.940;2023-06-22T02:40:09;8.68;;;4.60;;
65755;SDS011;69208;47.502;18.940;2023-06-22T02:41:13;8.00;;;3.97;;
65755;SDS011;69208;47.502;18.940;2023-06-22T02:42:20;11.05;;;4.28;;
65755;SDS011;69208;47.502;18.940;2023-06-22T02:43:24;10.35;;;4.50;;
65755;SDS011;69208;47.502;18.940;2023-06-22T02:44:27;10.15;;;4.45;;
65755;SDS011;69208;47.502;18.940;2023-06-22T02:45:30;7.72;;;4.07;;
65755;SDS011;69208;47.502;18.940;2023-06-22T02:46:33;8.52;;;4.00;;
65755;SDS011;69208;47.502;18.940;2023-06-22T02:47:36;8.95;;;3.92;;
65755;SDS011;69208;47.502;18.940;2023-06-22T02:48:39;8.65;;;4.75;;
65755;SDS011;69208;47.502;18.940;2023-06-22T02:49:42;7.65;;;4.25;;
65755;SDS011;69208;47.502;18.940;2023-06-22T02:50:47;7.03;;;4.03;;
65755;SDS011;69208;47.502;18.940;2023-06-22T02:51:50;10.38;;;4.25;;
65755;SDS011;69208;47.502;18.940;2023-06-22T02:52:53;8.13;;;4.10;;
65755;SDS011;69208;47.502;18.940;2023-06-22T02:53:56;6.18;;;3.92;;
65755;SDS011;69208;47.502;18.940;2023-06-22T02:55:00;8.00;;;4.05;;
65755;SDS011;69208;47.502;18.940;2023-06-22T02:56:03;7.32;;;4.03;;
65755;SDS011;69208;47.502;18.940;2023-06-22T02:57:07;9.45;;;4.60;;
65755;SDS011;69208;47.502;18.940;2023-06-22T02:58:16;8.23;;;4.50;;
65755;SDS011;69208;47.502;18.940;2023-06-22T02:59:19;11.23;;;4.80;;
65755;SDS011;69208;47.502;18.940;2023-06-22T03:00:26;6.93;;;3.97;;
65755;SDS011;69208;47.502;18.940;2023-06-22T03:01:33;8.50;;;4.28;;
65755;SDS011;69208;47.502;18.940;2023-06-22T03:02:46;8.63;;;4.45;;
65755;SDS011;69208;47.502;18.940;2023-06-22T03:03:50;9.48;;;4.50;;
65755;SDS011;69208;47.502;18.940;2023-06-22T03:04:53;8.15;;;4.30;;
65755;SDS011;69208;47.502;18.940;2023-06-22T03:05:57;10.73;;;4.78;;
65755;SDS011;69208;47.502;18.940;2023-06-22T03:06:59;11.70;;;4.93;;
65755;SDS011;69208;47.502;18.940;2023-06-22T03:08:04;11.52;;;5.10;;
65755;SDS011;69208;47.502;18.940;2023-06-22T03:09:07;9.43;;;4.43;;
65755;SDS011;69208;47.502;18.940;2023-06-22T03:10:10;11.50;;;4.60;;
65755;SDS011;69208;47.502;18.940;2023-06-22T03:11:14;12.48;;;5.28;;
65755;SDS011;69208;47.502;18.940;2023-06-22T03:12:17;12.13;;;5.00;;
65755;SDS011;69208;47.502;18.940;2023-06-22T03:13:19;10.90;;;4.70;;
65755;SDS011;69208;47.502;18.940;2023-06-22T03:14:22;7.82;;;4.30;;
65755;SDS011;69208;47.502;18.940;2023-06-22T03:15:25;9.50;;;4.35;;
65755;SDS011;69208;47.502;18.940;2023-06-22T03:16:31;9.80;;;4.25;;
65755;SDS011;69208;47.502;18.940;2023-06-22T03:17:36;8.52;;;4.05;;
65755;SDS011;69208;47.502;18.940;2023-06-22T03:18:41;9.73;;;4.40;;
65755;SDS011;69208;47.502;18.940;2023-06-22T03:19:44;9.27;;;4.40;;
65755;SDS011;69208;47.502;18.940;2023-06-22T03:20:46;9.02;;;4.82;;
65755;SDS011;69208;47.502;18.940;2023-06-22T03:21:49;8.00;;;3.97;;
65755;SDS011;69208;47.502;18.940;2023-06-22T03:22:52;13.13;;;4.75;;
65755;SDS011;69208;47.502;18.940;2023-06-22T03:23:55;12.45;;;4.62;;
65755;SDS011;69208;47.502;18.940;2023-06-22T03:24:58;8.18;;;4.18;;
65755;SDS011;69208;47.502;18.940;2023-06-22T03:26:01;9.30;;;4.43;;
65755;SDS011;69208;47.502;18.940;2023-06-22T03:27:05;13.35;;;4.60;;
65755;SDS011;69208;47.502;18.940;2023-06-22T03:28:08;11.15;;;4.20;;
65755;SDS011;69208;47.502;18.940;2023-06-22T03:29:11;7.62;;;3.85;;
65755;SDS011;69208;47.502;18.940;2023-06-22T03:30:14;8.40;;;4.47;;
65755;SDS011;69208;47.502;18.940;2023-06-22T03:31:17;7.80;;;4.22;;
65755;SDS011;69208;47.502;18.940;2023-06-22T03:32:24;9.98;;;4.40;;
65755;SDS011;69208;47.502;18.940;2023-06-22T03:33:30;8.63;;;4.07;;
65755;SDS011;69208;47.502;18.940;2023-06-22T03:34:33;10.05;;;4.43;;
65755;SDS011;69208;47.502;18.940;2023-06-22T03:35:38;9.10;;;4.30;;
65755;SDS011;69208;47.502;18.940;2023-06-22T03:36:41;13.20;;;4.25;;
65755;SDS011;69208;47.502;18.940;2023-06-22T03:37:45;8.48;;;4.53;;
65755;SDS011;69208;47.502;18.940;2023-06-22T03:38:48;10.30;;;5.22;;
65755;SDS011;69208;47.502;18.940;2023-06-22T03:39:52;13.75;;;4.70;;
65755;SDS011;69208;47.502;18.940;2023-06-22T03:40:55;15.02;;;4.50;;
65755;SDS011;69208;47.502;18.940;2023-06-22T03:41:58;11.38;;;5.05;;
65755;SDS011;69208;47.502;18.940;2023-06-22T03:43:02;8.82;;;4.15;;
65755;SDS011;69208;47.502;18.940;2023-06-22T03:44:04;13.38;;;4.55;;
65755;SDS011;69208;47.502;18.940;2023-06-22T03:45:08;12.43;;;4.60;;
65755;SDS011;69208;47.502;18.940;2023-06-22T03:46:11;9.30;;;4.10;;
65755;SDS011;69208;47.502;18.940;2023-06-22T03:47:14;8.63;;;4.05;;
65755;SDS011;69208;47.502;18.940;2023-06-22T03:48:17;10.05;;;4.25;;
65755;SDS011;69208;47.502;18.940;2023-06-22T03:49:20;9.60;;;4.30;;
65755;SDS011;69208;47.502;18.940;2023-06-22T03:50:23;7.55;;;4.15;;
65755;SDS011;69208;47.502;18.940;2023-06-22T03:51:26;11.20;;;4.30;;
65755;SDS011;69208;47.502;18.940;2023-06-22T03:52:29;10.43;;;4.07;;
65755;SDS011;69208;47.502;18.940;2023-06-22T03:53:32;11.05;;;4.45;;
65755;SDS011;69208;47.502;18.940;2023-06-22T03:54:36;9.93;;;4.20;;
65755;SDS011;69208;47.502;18.940;2023-06-22T03:55:42;9.30;;;4.45;;
65755;SDS011;69208;47.502;18.940;2023-06-22T03:56:51;9.68;;;4.43;;
65755;SDS011;69208;47.502;18.940;2023-06-22T03:57:54;8.50;;;4.03;;
65755;SDS011;69208;47.502;18.940;2023-06-22T03:58:59;7.72;;;3.62;;
65755;SDS011;69208;47.502;18.940;2023-06-22T04:00:02;8.48;;;3.70;;
65755;SDS011;69208;47.502;18.940;2023-06-22T04:01:10;9.10;;;4.18;;
65755;SDS011;69208;47.502;18.940;2023-06-22T04:02:13;8.45;;;3.70;;
65755;SDS011;69208;47.502;18.940;2023-06-22T04:03:17;11.10;;;4.10;;
65755;SDS011;69208;47.502;18.940;2023-06-22T04:04:23;8.43;;;4.12;;
65755;SDS011;69208;47.502;18.940;2023-06-22T04:05:26;11.43;;;4.37;;
65755;SDS011;69208;47.502;18.940;2023-06-22T04:06:29;9.25;;;3.67;;
65755;SDS011;69208;47.502;18.940;2023-06-22T04:07:32;7.65;;;3.83;;
65755;SDS011;69208;47.502;18.940;2023-06-22T04:08:35;12.48;;;4.05;;
65755;SDS011;69208;47.502;18.940;2023-06-22T04:09:39;8.05;;;3.65;;
65755;SDS011;69208;47.502;18.940;2023-06-22T04:10:42;8.48;;;3.92;;
65755;SDS011;69208;47.502;18.940;2023-06-22T04:11:45;7.93;;;3.92;;
65755;SDS011;69208;47.502;18.940;2023-06-22T04:12:48;10.63;;;4.15;;
65755;SDS011;69208;47.502;18.940;2023-06-22T04:13:51;8.13;;;4.18;;
65755;SDS011;69208;47.502;18.940;2023-06-22T04:14:54;10.82;;;4.10;;
65755;SDS011;69208;47.502;18.940;2023-06-22T04:15:57;8.57;;;3.80;;
65755;SDS011;69208;47.502;18.940;2023-06-22T04:17:01;8.55;;;4.07;;
65755;SDS011;69208;47.502;18.940;2023-06-22T04:18:04;10.25;;;4.20;;
65755;SDS011;69208;47.502;18.940;2023-06-22T04:19:07;11.15;;;3.85;;
65755;SDS011;69208;47.502;18.940;2023-06-22T04:20:15;7.57;;;3.70;;
65755;SDS011;69208;47.502;18.940;2023-06-22T04:21:18;9.63;;;4.32;;
65755;SDS011;69208;47.502;18.940;2023-06-22T04:22:24;9.50;;;3.90;;
65755;SDS011;69208;47.502;18.940;2023-06-22T04:23:28;6.05;;;3.50;;
65755;SDS011;69208;47.502;18.940;2023-06-22T04:24:30;8.88;;;3.67;;
65755;SDS011;69208;47.502;18.940;2023-06-22T04:25:33;9.43;;;3.85;;
65755;SDS011;69208;47.502;18.940;2023-06-22T04:26:36;7.82;;;4.05;;
65755;SDS011;69208;47.502;18.940;2023-06-22T04:27:43;8.80;;;3.78;;
65755;SDS011;69208;47.502;18.940;2023-06-22T04:28:47;8.02;;;3.90;;
65755;SDS011;69208;47.502;18.940;2023-06-22T04:29:57;7.95;;;4.00;;
65755;SDS011;69208;47.502;18.940;2023-06-22T04:31:02;7.43;;;3.92;;
65755;SDS011;69208;47.502;18.940;2023-06-22T04:32:06;7.60;;;3.60;;
65755;SDS011;69208;47.502;18.940;2023-06-22T04:33:09;13.00;;;4.12;;
65755;SDS011;69208;47.502;18.940;2023-06-22T04:34:12;9.75;;;3.70;;
65755;SDS011;69208;47.502;18.940;2023-06-22T04:35:18;8.65;;;3.47;;
65755;SDS011;69208;47.502;18.940;2023-06-22T04:36:21;8.93;;;3.55;;
65755;SDS011;69208;47.502;18.940;2023-06-22T04:37:27;7.97;;;3.92;;
65755;SDS011;69208;47.502;18.940;2023-06-22T04:38:30;7.68;;;3.95;;
65755;SDS011;69208;47.502;18.940;2023-06-22T04:39:36;11.18;;;4.07;;
65755;SDS011;69208;47.502;18.940;2023-06-22T04:40:40;6.90;;;3.70;;
65755;SDS011;69208;47.502;18.940;2023-06-22T04:41:43;7.37;;;3.87;;
65755;SDS011;69208;47.502;18.940;2023-06-22T04:42:46;10.88;;;3.97;;
65755;SDS011;69208;47.502;18.940;2023-06-22T04:43:54;11.12;;;4.00;;
65755;SDS011;69208;47.502;18.940;2023-06-22T04:45:03;7.45;;;3.90;;
65755;SDS011;69208;47.502;18.940;2023-06-22T04:46:07;8.55;;;4.00;;
65755;SDS011;69208;47.502;18.940;2023-06-22T04:47:10;7.97;;;3.65;;
65755;SDS011;69208;47.502;18.940;2023-06-22T04:48:13;6.85;;;3.97;;
65755;SDS011;69208;47.502;18.940;2023-06-22T04:49:19;6.37;;;3.80;;
65755;SDS011;69208;47.502;18.940;2023-06-22T04:50:23;9.52;;;3.50;;
65755;SDS011;69208;47.502;18.940;2023-06-22T04:51:26;8.57;;;3.80;;
65755;SDS011;69208;47.502;18.940;2023-06-22T04:52:33;7.68;;;3.45;;
65755;SDS011;69208;47.502;18.940;2023-06-22T04:53:36;8.23;;;3.95;;
65755;SDS011;69208;47.502;18.940;2023-06-22T04:54:39;9.52;;;4.03;;
65755;SDS011;69208;47.502;18.940;2023-06-22T04:55:50;8.05;;;3.78;;
65755;SDS011;69208;47.502;18.940;2023-06-22T04:56:55;6.87;;;3.70;;
65755;SDS011;69208;47.502;18.940;2023-06-22T04:58:01;9.10;;;3.85;;
65755;SDS011;69208;47.502;18.940;2023-06-22T04:59:07;5.37;;;3.42;;
65755;SDS011;69208;47.502;18.940;2023-06-22T05:00:10;7.82;;;3.70;;
65755;SDS011;69208;47.502;18.940;2023-06-22T05:01:15;7.90;;;3.30;;
65755;SDS011;69208;47.502;18.940;2023-06-22T05:02:18;7.35;;;3.87;;
65755;SDS011;69208;47.502;18.940;2023-06-22T05:03:21;7.85;;;4.05;;
65755;SDS011;69208;47.502;18.940;2023-06-22T05:04:25;7.43;;;3.83;;
65755;SDS011;69208;47.502;18.940;2023-06-22T05:05:30;9.10;;;4.07;;
65755;SDS011;69208;47.502;18.940;2023-06-22T05:06:33;9.35;;;3.70;;
65755;SDS011;69208;47.502;18.940;2023-06-22T05:07:36;15.23;;;4.03;;
65755;SDS011;69208;47.502;18.940;2023-06-22T05:08:39;7.97;;;4.10;;
65755;SDS011;69208;47.502;18.940;2023-06-22T05:09:43;6.43;;;3.72;;
65755;SDS011;69208;47.502;18.940;2023-06-22T05:10:46;8.32;;;4.00;;
65755;SDS011;69208;47.502;18.940;2023-06-22T05:12:05;8.25;;;3.62;;
65755;SDS011;69208;47.502;18.940;2023-06-22T05:13:12;9.38;;;4.00;;
65755;SDS011;69208;47.502;18.940;2023-06-22T05:14:15;7.85;;;3.37;;
65755;SDS011;69208;47.502;18.940;2023-06-22T05:15:18;7.78;;;4.15;;
65755;SDS011;69208;47.502;18.940;2023-06-22T05:16:29;7.93;;;3.97;;
65755;SDS011;69208;47.502;18.940;2023-06-22T05:17:32;9.27;;;3.67;;
65755;SDS011;69208;47.502;18.940;2023-06-22T05:18:35;9.93;;;4.25;;
65755;SDS011;69208;47.502;18.940;2023-06-22T05:19:39;9.18;;;3.70;;
65755;SDS011;69208;47.502;18.940;2023-06-22T05:20:47;8.23;;;4.25;;
65755;SDS011;69208;47.502;18.940;2023-06-22T05:21:50;6.87;;;3.80;;
65755;SDS011;69208;47.502;18.940;2023-06-22T05:22:53;7.32;;;3.90;;
65755;SDS011;69208;47.502;18.940;2023-06-22T05:23:56;7.25;;;3.90;;
65755;SDS011;69208;47.502;18.940;2023-06-22T05:25:02;10.10;;;4.37;;
65755;SDS011;69208;47.502;18.940;2023-06-22T05:26:05;10.50;;;4.03;;
65755;SDS011;69208;47.502;18.940;2023-06-22T05:27:12;7.85;;;4.28;;
65755;SDS011;69208;47.502;18.940;2023-06-22T05:28:15;7.97;;;3.83;;
65755;SDS011;69208;47.502;18.940;2023-06-22T05:29:18;7.07;;;4.03;;
65755;SDS011;69208;47.502;18.940;2023-06-22T05:30:21;7.97;;;4.22;;
65755;SDS011;69208;47.502;18.940;2023-06-22T05:31:24;11.25;;;4.70;;
65755;SDS011;69208;47.502;18.940;2023-06-22T05:32:27;8.52;;;4.18;;
65755;SDS011;69208;47.502;18.940;2023-06-22T05:33:30;7.85;;;4.50;;
65755;SDS011;69208;47.502;18.940;2023-06-22T05:34:33;9.55;;;4.25;;
65755;SDS011;69208;47.502;18.940;2023-06-22T05:35:36;9.40;;;4.53;;
65755;SDS011;69208;47.502;18.940;2023-06-22T05:36:39;12.18;;;4.78;;
65755;SDS011;69208;47.502;18.940;2023-06-22T05:37:42;7.82;;;4.03;;
65755;SDS011;69208;47.502;18.940;2023-06-22T05:38:45;8.43;;;4.70;;
65755;SDS011;69208;47.502;18.940;2023-06-22T05:39:48;13.18;;;4.87;;
65755;SDS011;69208;47.502;18.940;2023-06-22T05:40:51;10.75;;;4.68;;
65755;SDS011;69208;47.502;18.940;2023-06-22T05:41:54;12.77;;;5.03;;
65755;SDS011;69208;47.502;18.940;2023-06-22T05:42:57;9.35;;;4.78;;
65755;SDS011;69208;47.502;18.940;2023-06-22T05:44:00;10.10;;;4.93;;
65755;SDS011;69208;47.502;18.940;2023-06-22T05:45:03;11.02;;;5.20;;
65755;SDS011;69208;47.502;18.940;2023-06-22T05:46:06;9.48;;;5.45;;
65755;SDS011;69208;47.502;18.940;2023-06-22T05:47:10;12.23;;;5.25;;
65755;SDS011;69208;47.502;18.940;2023-06-22T05:48:13;11.75;;;5.40;;
65755;SDS011;69208;47.502;18.940;2023-06-22T05:49:16;11.68;;;4.93;;
65755;SDS011;69208;47.502;18.940;2023-06-22T05:50:19;11.00;;;5.62;;
65755;SDS011;69208;47.502;18.940;2023-06-22T05:51:22;16.60;;;5.22;;
65755;SDS011;69208;47.502;18.940;2023-06-22T05:52:25;10.45;;;5.55;;
65755;SDS011;69208;47.502;18.940;2023-06-22T05:53:28;10.23;;;5.62;;
65755;SDS011;69208;47.502;18.940;2023-06-22T05:54:31;11.00;;;5.45;;
65755;SDS011;69208;47.502;18.940;2023-06-22T05:55:34;10.27;;;5.40;;
65755;SDS011;69208;47.502;18.940;2023-06-22T05:56:37;15.90;;;6.05;;
65755;SDS011;69208;47.502;18.940;2023-06-22T05:57:40;11.80;;;5.07;;
65755;SDS011;69208;47.502;18.940;2023-06-22T05:58:43;10.77;;;5.22;;
65755;SDS011;69208;47.502;18.940;2023-06-22T05:59:46;10.88;;;5.10;;
65755;SDS011;69208;47.502;18.940;2023-06-22T06:00:49;14.45;;;5.05;;
65755;SDS011;69208;47.502;18.940;2023-06-22T06:01:52;10.43;;;4.93;;
65755;SDS011;69208;47.502;18.940;2023-06-22T06:02:55;12.37;;;5.25;;
65755;SDS011;69208;47.502;18.940;2023-06-22T06:03:59;8.75;;;4.90;;
65755;SDS011;69208;47.502;18.940;2023-06-22T06:05:02;14.05;;;5.53;;
65755;SDS011;69208;47.502;18.940;2023-06-22T06:06:05;10.35;;;5.25;;
65755;SDS011;69208;47.502;18.940;2023-06-22T06:07:09;13.68;;;5.47;;
65755;SDS011;69208;47.502;18.940;2023-06-22T06:08:12;11.15;;;5.10;;
65755;SDS011;69208;47.502;18.940;2023-06-22T06:09:15;10.10;;;4.90;;
65755;SDS011;69208;47.502;18.940;2023-06-22T06:10:18;11.98;;;5.25;;
65755;SDS011;69208;47.502;18.940;2023-06-22T06:11:21;12.30;;;5.22;;
65755;SDS011;69208;47.502;18.940;2023-06-22T06:12:24;11.45;;;5.20;;
65755;SDS011;69208;47.502;18.940;2023-06-22T06:13:27;14.32;;;5.05;;
65755;SDS011;69208;47.502;18.940;2023-06-22T06:14:30;12.05;;;4.97;;
65755;SDS011;69208;47.502;18.940;2023-06-22T06:15:34;11.65;;;5.25;;
65755;SDS011;69208;47.502;18.940;2023-06-22T06:16:37;12.48;;;5.15;;
65755;SDS011;69208;47.502;18.940;2023-06-22T06:17:46;12.85;;;5.22;;
65755;SDS011;69208;47.502;18.940;2023-06-22T06:18:50;13.20;;;5.07;;
65755;SDS011;69208;47.502;18.940;2023-06-22T06:19:53;9.02;;;4.78;;
65755;SDS011;69208;47.502;18.940;2023-06-22T06:20:56;12.32;;;4.95;;
65755;SDS011;69208;47.502;18.940;2023-06-22T06:21:59;9.63;;;4.53;;
65755;SDS011;69208;47.502;18.940;2023-06-22T06:23:02;8.85;;;4.82;;
65755;SDS011;69208;47.502;18.940;2023-06-22T06:24:05;9.95;;;5.12;;
65755;SDS011;69208;47.502;18.940;2023-06-22T06:25:09;13.23;;;5.43;;
65755;SDS011;69208;47.502;18.940;2023-06-22T06:26:12;11.40;;;4.97;;
65755;SDS011;69208;47.502;18.940;2023-06-22T06:27:18;9.70;;;4.85;;
65755;SDS011;69208;47.502;18.940;2023-06-22T06:28:21;11.32;;;4.97;;
65755;SDS011;69208;47.502;18.940;2023-06-22T06:29:24;14.98;;;5.18;;